sensor_id;sensor_type;location;lat;lon;timestamp;P1;durP1;ratioP1;P2;durP2;ratioP2
43990;SDS011;29654;50.784;20.604;2023-02-18T00:03:24;3.83;;;3.53;;
43990;SDS011;29654;50.784;20.604;2023-02-18T00:08:28;3.28;;;3.08;;
43990;SDS011;29654;50.784;20.604;2023-02-18T00:13:32;3.38;;;3.10;;
43990;SDS011;29654;50.784;20.604;2023-02-18T00:18:35;3.80;;;3.42;;
43990;SDS011;29654;50.784;20.604;2023-02-18T00:23:38;3.40;;;3.10;;
43990;SDS011;29654;50.784;20.604;2023-02-18T00:28:42;3.17;;;2.90;;
43990;SDS011;29654;50.784;20.604;2023-02-18T00:33:47;3.03;;;2.70;;
43990;SDS011;29654;50.784;20.604;2023-02-18T00:38:50;2.95;;;2.63;;
43990;SDS011;29654;50.784;20.604;2023-02-18T00:43:56;2.60;;;2.40;;
43990;SDS011;29654;50.784;20.604;2023-02-18T00:48:59;2.60;;;2.40;;
43990;SDS011;29654;50.784;20.604;2023-02-18T00:54:02;2.17;;;1.98;;
43990;SDS011;29654;50.784;20.604;2023-02-18T00:59:06;2.10;;;2.00;;
43990;SDS011;29654;50.784;20.604;2023-02-18T01:04:09;2.03;;;1.83;;
43990;SDS011;29654;50.784;20.604;2023-02-18T01:09:12;2.20;;;1.88;;
43990;SDS011;29654;50.784;20.604;2023-02-18T01:14:16;2.10;;;1.58;;
43990;SDS011;29654;50.784;20.604;2023-02-18T01:19:18;1.80;;;1.67;;
43990;SDS011;29654;50.784;20.604;2023-02-18T01:24:21;2.67;;;1.73;;
43990;SDS011;29654;50.784;20.604;2023-02-18T01:29:25;2.88;;;1.80;;
43990;SDS011;29654;50.784;20.604;2023-02-18T01:34:29;2.08;;;1.45;;
43990;SDS011;29654;50.784;20.604;2023-02-18T01:39:32;1.52;;;1.42;;
43990;SDS011;29654;50.784;20.604;2023-02-18T01:44:36;1.30;;;1.17;;
43990;SDS011;29654;50.784;20.604;2023-02-18T01:49:39;1.95;;;1.40;;
43990;SDS011;29654;50.784;20.604;2023-02-18T01:54:44;2.20;;;1.30;;
43990;SDS011;29654;50.784;20.604;2023-02-18T01:59:51;1.25;;;1.00;;
43990;SDS011;29654;50.784;20.604;2023-02-18T02:04:57;2.28;;;1.25;;
43990;SDS011;29654;50.784;20.604;2023-02-18T02:10:00;1.63;;;0.82;;
43990;SDS011;29654;50.784;20.604;2023-02-18T02:15:24;1.13;;;0.85;;
43990;SDS011;29654;50.784;20.604;2023-02-18T02:26:34;4.20;;;0.95;;
43990;SDS011;29654;50.784;20.604;2023-02-18T02:32:22;2.08;;;0.68;;
43990;SDS011;29654;50.784;20.604;2023-02-18T02:38:03;1.20;;;0.80;;
43990;SDS011;29654;50.784;20.604;2023-02-18T02:43:14;2.00;;;0.82;;
43990;SDS011;29654;50.784;20.604;2023-02-18T02:48:27;0.80;;;0.63;;
43990;SDS011;29654;50.784;20.604;2023-02-18T02:53:41;3.75;;;1.15;;
43990;SDS011;29654;50.784;20.604;2023-02-18T02:58:45;1.02;;;0.55;;
43990;SDS011;29654;50.784;20.604;2023-02-18T03:09:29;2.08;;;0.70;;
43990;SDS011;29654;50.784;20.604;2023-02-18T03:14:43;1.97;;;0.93;;
43990;SDS011;29654;50.784;20.604;2023-02-18T03:19:53;2.15;;;0.65;;
43990;SDS011;29654;50.784;20.604;2023-02-18T03:25:06;1.05;;;0.60;;
43990;SDS011;29654;50.784;20.604;2023-02-18T03:30:14;2.92;;;0.82;;
43990;SDS011;29654;50.784;20.604;2023-02-18T03:35:20;3.35;;;0.73;;
43990;SDS011;29654;50.784;20.604;2023-02-18T03:40:25;1.00;;;0.60;;
43990;SDS011;29654;50.784;20.604;2023-02-18T03:45:28;2.10;;;0.60;;
43990;SDS011;29654;50.784;20.604;2023-02-18T03:50:31;1.52;;;0.98;;
43990;SDS011;29654;50.784;20.604;2023-02-18T03:55:35;0.85;;;0.70;;
43990;SDS011;29654;50.784;20.604;2023-02-18T04:00:38;1.83;;;0.70;;
43990;SDS011;29654;50.784;20.604;2023-02-18T04:05:40;1.20;;;0.95;;
43990;SDS011;29654;50.784;20.604;2023-02-18T04:10:44;1.88;;;0.60;;
43990;SDS011;29654;50.784;20.604;2023-02-18T04:15:48;1.02;;;0.75;;
43990;SDS011;29654;50.784;20.604;2023-02-18T04:20:51;1.70;;;0.60;;
43990;SDS011;29654;50.784;20.604;2023-02-18T04:25:55;1.15;;;0.55;;
43990;SDS011;29654;50.784;20.604;2023-02-18T04:30:58;1.30;;;0.68;;
43990;SDS011;29654;50.784;20.604;2023-02-18T04:36:00;2.35;;;1.00;;
43990;SDS011;29654;50.784;20.604;2023-02-18T04:41:04;2.50;;;0.75;;
43990;SDS011;29654;50.784;20.604;2023-02-18T04:46:07;3.95;;;0.90;;
43990;SDS011;29654;50.784;20.604;2023-02-18T04:51:09;1.05;;;0.50;;
43990;SDS011;29654;50.784;20.604;2023-02-18T04:56:14;2.97;;;0.95;;
43990;SDS011;29654;50.784;20.604;2023-02-18T05:01:16;1.15;;;0.50;;
43990;SDS011;29654;50.784;20.604;2023-02-18T05:06:19;4.35;;;0.90;;
43990;SDS011;29654;50.784;20.604;2023-02-18T05:11:23;2.47;;;0.80;;
43990;SDS011;29654;50.784;20.604;2023-02-18T05:16:25;0.68;;;0.65;;
43990;SDS011;29654;50.784;20.604;2023-02-18T05:21:28;1.73;;;0.73;;
43990;SDS011;29654;50.784;20.604;2023-02-18T05:26:32;2.38;;;0.80;;
43990;SDS011;29654;50.784;20.604;2023-02-18T05:31:35;1.67;;;0.80;;
43990;SDS011;29654;50.784;20.604;2023-02-18T05:36:37;3.25;;;0.60;;
43990;SDS011;29654;50.784;20.604;2023-02-18T05:41:41;2.20;;;0.90;;
43990;SDS011;29654;50.784;20.604;2023-02-18T05:46:44;1.30;;;0.63;;
43990;SDS011;29654;50.784;20.604;2023-02-18T05:51:46;2.33;;;0.80;;
43990;SDS011;29654;50.784;20.604;2023-02-18T05:56:50;2.95;;;0.80;;
43990;SDS011;29654;50.784;20.604;2023-02-18T06:01:53;3.05;;;1.20;;
43990;SDS011;29654;50.784;20.604;2023-02-18T06:06:56;2.55;;;0.70;;
43990;SDS011;29654;50.784;20.604;2023-02-18T06:12:01;5.20;;;1.17;;
43990;SDS011;29654;50.784;20.604;2023-02-18T06:17:03;4.72;;;1.25;;
43990;SDS011;29654;50.784;20.604;2023-02-18T06:22:06;2.90;;;0.82;;
43990;SDS011;29654;50.784;20.604;2023-02-18T06:27:10;3.58;;;0.80;;
43990;SDS011;29654;50.784;20.604;2023-02-18T06:32:13;3.60;;;1.38;;
43990;SDS011;29654;50.784;20.604;2023-02-18T06:37:15;3.75;;;1.48;;
43990;SDS011;29654;50.784;20.604;2023-02-18T06:42:19;2.90;;;1.15;;
43990;SDS011;29654;50.784;20.604;2023-02-18T06:47:22;3.72;;;1.20;;
43990;SDS011;29654;50.784;20.604;2023-02-18T06:52:25;1.98;;;0.98;;
43990;SDS011;29654;50.784;20.604;2023-02-18T06:57:31;1.65;;;0.90;;
43990;SDS011;29654;50.784;20.604;2023-02-18T07:02:33;3.33;;;0.90;;
43990;SDS011;29654;50.784;20.604;2023-02-18T07:07:36;3.00;;;1.20;;
43990;SDS011;29654;50.784;20.604;2023-02-18T07:12:40;4.13;;;1.20;;
43990;SDS011;29654;50.784;20.604;2023-02-18T07:17:42;4.15;;;1.17;;
43990;SDS011;29654;50.784;20.604;2023-02-18T07:22:45;3.28;;;1.27;;
43990;SDS011;29654;50.784;20.604;2023-02-18T07:27:49;4.07;;;1.20;;
43990;SDS011;29654;50.784;20.604;2023-02-18T07:32:52;3.20;;;1.00;;
43990;SDS011;29654;50.784;20.604;2023-02-18T07:37:55;2.38;;;0.90;;
43990;SDS011;29654;50.784;20.604;2023-02-18T07:42:59;1.42;;;0.85;;
43990;SDS011;29654;50.784;20.604;2023-02-18T07:48:02;3.75;;;1.20;;
43990;SDS011;29654;50.784;20.604;2023-02-18T07:53:05;1.33;;;0.90;;
43990;SDS011;29654;50.784;20.604;2023-02-18T07:58:10;4.90;;;1.17;;
43990;SDS011;29654;50.784;20.604;2023-02-18T08:03:12;2.13;;;1.10;;
43990;SDS011;29654;50.784;20.604;2023-02-18T08:08:16;3.05;;;1.27;;
43990;SDS011;29654;50.784;20.604;2023-02-18T08:13:22;3.90;;;1.02;;
43990;SDS011;29654;50.784;20.604;2023-02-18T08:18:25;3.85;;;0.80;;
43990;SDS011;29654;50.784;20.604;2023-02-18T08:23:28;4.18;;;1.50;;
43990;SDS011;29654;50.784;20.604;2023-02-18T08:28:32;4.47;;;1.25;;
43990;SDS011;29654;50.784;20.604;2023-02-18T08:33:34;4.32;;;1.50;;
43990;SDS011;29654;50.784;20.604;2023-02-18T08:38:37;4.00;;;1.80;;
43990;SDS011;29654;50.784;20.604;2023-02-18T08:43:41;4.45;;;1.30;;
43990;SDS011;29654;50.784;20.604;2023-02-18T08:48:43;2.85;;;1.05;;
43990;SDS011;29654;50.784;20.604;2023-02-18T08:53:46;2.97;;;1.00;;
43990;SDS011;29654;50.784;20.604;2023-02-18T08:58:50;2.40;;;0.90;;
43990;SDS011;29654;50.784;20.604;2023-02-18T09:03:53;2.10;;;0.80;;
43990;SDS011;29654;50.784;20.604;2023-02-18T09:08:55;4.90;;;1.20;;
43990;SDS011;29654;50.784;20.604;2023-02-18T09:13:59;3.38;;;1.10;;
43990;SDS011;29654;50.784;20.604;2023-02-18T09:19:02;3.38;;;1.30;;
43990;SDS011;29654;50.784;20.604;2023-02-18T09:24:05;4.20;;;1.20;;
43990;SDS011;29654;50.784;20.604;2023-02-18T09:29:10;2.80;;;1.25;;
43990;SDS011;29654;50.784;20.604;2023-02-18T09:34:13;3.78;;;1.42;;
43990;SDS011;29654;50.784;20.604;2023-02-18T09:39:15;2.97;;;1.10;;
43990;SDS011;29654;50.784;20.604;2023-02-18T09:44:22;2.65;;;1.15;;
43990;SDS011;29654;50.784;20.604;2023-02-18T09:49:29;2.45;;;1.17;;
43990;SDS011;29654;50.784;20.604;2023-02-18T09:54:35;2.58;;;1.20;;
43990;SDS011;29654;50.784;20.604;2023-02-18T09:59:39;2.85;;;1.17;;
43990;SDS011;29654;50.784;20.604;2023-02-18T10:04:44;3.40;;;1.33;;
43990;SDS011;29654;50.784;20.604;2023-02-18T10:09:50;7.20;;;1.35;;
43990;SDS011;29654;50.784;20.604;2023-02-18T10:14:57;4.72;;;1.38;;
43990;SDS011;29654;50.784;20.604;2023-02-18T10:20:01;3.20;;;1.00;;
43990;SDS011;29654;50.784;20.604;2023-02-18T10:25:05;2.97;;;1.45;;
43990;SDS011;29654;50.784;20.604;2023-02-18T10:30:16;2.05;;;0.98;;
43990;SDS011;29654;50.784;20.604;2023-02-18T10:35:27;2.65;;;1.13;;
43990;SDS011;29654;50.784;20.604;2023-02-18T10:40:40;5.22;;;1.52;;
43990;SDS011;29654;50.784;20.604;2023-02-18T10:45:55;3.92;;;1.30;;
43990;SDS011;29654;50.784;20.604;2023-02-18T10:51:11;3.42;;;1.48;;
43990;SDS011;29654;50.784;20.604;2023-02-18T11:01:44;5.25;;;1.25;;
43990;SDS011;29654;50.784;20.604;2023-02-18T11:06:48;2.35;;;1.20;;
43990;SDS011;29654;50.784;20.604;2023-02-18T11:11:56;3.38;;;1.52;;
43990;SDS011;29654;50.784;20.604;2023-02-18T11:17:08;2.67;;;1.20;;
43990;SDS011;29654;50.784;20.604;2023-02-18T11:22:20;2.03;;;1.10;;
43990;SDS011;29654;50.784;20.604;2023-02-18T11:27:27;1.77;;;1.10;;
43990;SDS011;29654;50.784;20.604;2023-02-18T11:32:35;1.67;;;1.10;;
43990;SDS011;29654;50.784;20.604;2023-02-18T11:37:38;2.28;;;1.13;;
43990;SDS011;29654;50.784;20.604;2023-02-18T11:42:41;1.67;;;1.10;;
43990;SDS011;29654;50.784;20.604;2023-02-18T11:47:45;1.75;;;1.00;;
43990;SDS011;29654;50.784;20.604;2023-02-18T11:53:00;2.50;;;1.10;;
43990;SDS011;29654;50.784;20.604;2023-02-18T11:58:32;4.50;;;1.00;;
43990;SDS011;29654;50.784;20.604;2023-02-18T12:03:41;2.42;;;1.40;;
43990;SDS011;29654;50.784;20.604;2023-02-18T12:08:51;2.45;;;1.35;;
43990;SDS011;29654;50.784;20.604;2023-02-18T12:13:59;1.83;;;1.30;;
43990;SDS011;29654;50.784;20.604;2023-02-18T12:19:06;1.77;;;1.02;;
43990;SDS011;29654;50.784;20.604;2023-02-18T12:24:37;2.58;;;1.00;;
43990;SDS011;29654;50.784;20.604;2023-02-18T12:30:02;2.15;;;0.98;;
43990;SDS011;29654;50.784;20.604;2023-02-18T12:35:39;1.45;;;1.00;;
43990;SDS011;29654;50.784;20.604;2023-02-18T12:41:04;2.28;;;1.13;;
43990;SDS011;29654;50.784;20.604;2023-02-18T12:46:37;1.55;;;1.00;;
43990;SDS011;29654;50.784;20.604;2023-02-18T12:51:58;2.15;;;1.00;;
43990;SDS011;29654;50.784;20.604;2023-02-18T12:57:21;1.88;;;1.15;;
43990;SDS011;29654;50.784;20.604;2023-02-18T13:02:43;1.90;;;1.00;;
43990;SDS011;29654;50.784;20.604;2023-02-18T13:08:33;3.65;;;1.42;;
43990;SDS011;29654;50.784;20.604;2023-02-18T13:13:51;2.50;;;1.30;;
43990;SDS011;29654;50.784;20.604;2023-02-18T13:19:01;2.92;;;1.23;;
43990;SDS011;29654;50.784;20.604;2023-02-18T13:24:18;2.53;;;1.58;;
43990;SDS011;29654;50.784;20.604;2023-02-18T13:29:29;2.10;;;1.30;;
43990;SDS011;29654;50.784;20.604;2023-02-18T13:34:39;2.03;;;1.40;;
43990;SDS011;29654;50.784;20.604;2023-02-18T13:39:50;3.33;;;1.50;;
43990;SDS011;29654;50.784;20.604;2023-02-18T13:45:03;2.05;;;1.20;;
43990;SDS011;29654;50.784;20.604;2023-02-18T13:50:26;1.40;;;1.17;;
43990;SDS011;29654;50.784;20.604;2023-02-18T13:55:47;2.15;;;1.25;;
43990;SDS011;29654;50.784;20.604;2023-02-18T14:00:57;1.70;;;1.25;;
43990;SDS011;29654;50.784;20.604;2023-02-18T14:06:14;2.90;;;1.88;;
43990;SDS011;29654;50.784;20.604;2023-02-18T14:11:34;3.33;;;1.80;;
43990;SDS011;29654;50.784;20.604;2023-02-18T14:22:43;2.85;;;1.77;;
43990;SDS011;29654;50.784;20.604;2023-02-18T14:27:50;3.75;;;1.85;;
43990;SDS011;29654;50.784;20.604;2023-02-18T14:32:55;2.83;;;1.98;;
43990;SDS011;29654;50.784;20.604;2023-02-18T14:38:03;2.42;;;1.75;;
43990;SDS011;29654;50.784;20.604;2023-02-18T14:43:49;2.08;;;1.63;;
43990;SDS011;29654;50.784;20.604;2023-02-18T14:49:35;3.22;;;2.50;;
43990;SDS011;29654;50.784;20.604;2023-02-18T14:54:41;3.97;;;2.85;;
43990;SDS011;29654;50.784;20.604;2023-02-18T14:59:47;5.82;;;3.58;;
43990;SDS011;29654;50.784;20.604;2023-02-18T15:05:07;4.68;;;2.80;;
43990;SDS011;29654;50.784;20.604;2023-02-18T15:10:15;4.07;;;2.75;;
43990;SDS011;29654;50.784;20.604;2023-02-18T15:15:19;3.70;;;2.50;;
43990;SDS011;29654;50.784;20.604;2023-02-18T15:20:22;4.80;;;3.13;;
43990;SDS011;29654;50.784;20.604;2023-02-18T15:25:24;4.72;;;3.33;;
43990;SDS011;29654;50.784;20.604;2023-02-18T15:30:29;3.67;;;2.78;;
43990;SDS011;29654;50.784;20.604;2023-02-18T15:35:32;4.38;;;3.00;;
43990;SDS011;29654;50.784;20.604;2023-02-18T15:40:35;5.70;;;3.53;;
43990;SDS011;29654;50.784;20.604;2023-02-18T15:45:41;5.28;;;3.70;;
43990;SDS011;29654;50.784;20.604;2023-02-18T15:50:47;4.43;;;4.03;;
43990;SDS011;29654;50.784;20.604;2023-02-18T15:55:53;5.72;;;5.13;;
43990;SDS011;29654;50.784;20.604;2023-02-18T16:00:58;7.40;;;6.53;;
43990;SDS011;29654;50.784;20.604;2023-02-18T16:06:07;6.18;;;4.53;;
43990;SDS011;29654;50.784;20.604;2023-02-18T16:11:13;5.95;;;4.75;;
43990;SDS011;29654;50.784;20.604;2023-02-18T16:16:21;7.70;;;5.40;;
43990;SDS011;29654;50.784;20.604;2023-02-18T16:21:29;8.20;;;6.68;;
43990;SDS011;29654;50.784;20.604;2023-02-18T16:26:40;6.10;;;5.43;;
43990;SDS011;29654;50.784;20.604;2023-02-18T16:31:46;8.45;;;5.28;;
43990;SDS011;29654;50.784;20.604;2023-02-18T16:36:49;10.73;;;9.32;;
43990;SDS011;29654;50.784;20.604;2023-02-18T16:42:09;57.72;;;34.42;;
43990;SDS011;29654;50.784;20.604;2023-02-18T16:47:14;20.27;;;12.85;;
43990;SDS011;29654;50.784;20.604;2023-02-18T16:52:18;23.02;;;15.75;;
43990;SDS011;29654;50.784;20.604;2023-02-18T16:57:21;19.75;;;14.38;;
43990;SDS011;29654;50.784;20.604;2023-02-18T17:02:25;15.68;;;11.82;;
43990;SDS011;29654;50.784;20.604;2023-02-18T17:07:28;9.88;;;8.23;;
43990;SDS011;29654;50.784;20.604;2023-02-18T17:12:32;8.27;;;6.30;;
43990;SDS011;29654;50.784;20.604;2023-02-18T17:17:36;7.30;;;5.65;;
43990;SDS011;29654;50.784;20.604;2023-02-18T17:22:38;5.95;;;4.38;;
43990;SDS011;29654;50.784;20.604;2023-02-18T17:27:42;4.32;;;3.67;;
43990;SDS011;29654;50.784;20.604;2023-02-18T17:32:46;14.73;;;11.20;;
43990;SDS011;29654;50.784;20.604;2023-02-18T17:37:49;20.42;;;15.45;;
43990;SDS011;29654;50.784;20.604;2023-02-18T17:42:53;19.10;;;15.05;;
43990;SDS011;29654;50.784;20.604;2023-02-18T17:47:58;17.02;;;14.35;;
43990;SDS011;29654;50.784;20.604;2023-02-18T17:53:02;20.63;;;16.20;;
43990;SDS011;29654;50.784;20.604;2023-02-18T17:58:04;24.98;;;19.95;;
43990;SDS011;29654;50.784;20.604;2023-02-18T18:03:09;25.65;;;18.27;;
43990;SDS011;29654;50.784;20.604;2023-02-18T18:08:12;21.00;;;17.58;;
43990;SDS011;29654;50.784;20.604;2023-02-18T18:13:16;19.40;;;16.17;;
43990;SDS011;29654;50.784;20.604;2023-02-18T18:18:23;20.15;;;17.95;;
43990;SDS011;29654;50.784;20.604;2023-02-18T18:23:26;33.53;;;25.50;;
43990;SDS011;29654;50.784;20.604;2023-02-18T18:28:29;29.08;;;23.75;;
43990;SDS011;29654;50.784;20.604;2023-02-18T18:33:33;27.92;;;22.75;;
43990;SDS011;29654;50.784;20.604;2023-02-18T18:38:35;19.63;;;17.00;;
43990;SDS011;29654;50.784;20.604;2023-02-18T18:43:38;17.27;;;14.27;;
43990;SDS011;29654;50.784;20.604;2023-02-18T18:48:42;14.27;;;10.73;;
43990;SDS011;29654;50.784;20.604;2023-02-18T18:53:45;13.32;;;10.95;;
43990;SDS011;29654;50.784;20.604;2023-02-18T18:58:48;13.63;;;10.52;;
43990;SDS011;29654;50.784;20.604;2023-02-18T19:03:52;11.30;;;9.23;;
43990;SDS011;29654;50.784;20.604;2023-02-18T19:08:54;9.13;;;7.10;;
43990;SDS011;29654;50.784;20.604;2023-02-18T19:13:57;8.93;;;6.40;;
43990;SDS011;29654;50.784;20.604;2023-02-18T19:19:01;9.70;;;7.47;;
43990;SDS011;29654;50.784;20.604;2023-02-18T19:24:04;12.07;;;8.20;;
43990;SDS011;29654;50.784;20.604;2023-02-18T19:29:06;14.55;;;9.70;;
43990;SDS011;29654;50.784;20.604;2023-02-18T19:34:10;7.93;;;6.53;;
43990;SDS011;29654;50.784;20.604;2023-02-18T19:39:13;11.63;;;8.30;;
43990;SDS011;29654;50.784;20.604;2023-02-18T19:44:16;14.45;;;9.30;;
43990;SDS011;29654;50.784;20.604;2023-02-18T19:49:21;10.63;;;7.93;;
43990;SDS011;29654;50.784;20.604;2023-02-18T19:54:26;12.32;;;9.00;;
43990;SDS011;29654;50.784;20.604;2023-02-18T19:59:29;12.88;;;9.20;;
43990;SDS011;29654;50.784;20.604;2023-02-18T20:04:33;9.55;;;6.65;;
43990;SDS011;29654;50.784;20.604;2023-02-18T20:09:35;5.72;;;5.13;;
43990;SDS011;29654;50.784;20.604;2023-02-18T20:14:38;6.22;;;4.53;;
43990;SDS011;29654;50.784;20.604;2023-02-18T20:19:44;5.75;;;4.70;;
43990;SDS011;29654;50.784;20.604;2023-02-18T20:24:47;14.30;;;8.25;;
43990;SDS011;29654;50.784;20.604;2023-02-18T20:29:49;9.90;;;5.95;;
43990;SDS011;29654;50.784;20.604;2023-02-18T20:34:53;10.02;;;6.85;;
43990;SDS011;29654;50.784;20.604;2023-02-18T20:39:57;6.97;;;4.88;;
43990;SDS011;29654;50.784;20.604;2023-02-18T20:44:59;8.93;;;5.97;;
43990;SDS011;29654;50.784;20.604;2023-02-18T20:50:03;11.82;;;7.78;;
43990;SDS011;29654;50.784;20.604;2023-02-18T20:55:07;9.50;;;6.45;;
43990;SDS011;29654;50.784;20.604;2023-02-18T21:00:10;6.72;;;5.00;;
43990;SDS011;29654;50.784;20.604;2023-02-18T21:05:15;6.32;;;4.55;;
43990;SDS011;29654;50.784;20.604;2023-02-18T21:10:18;12.82;;;8.00;;
43990;SDS011;29654;50.784;20.604;2023-02-18T21:15:21;12.88;;;8.15;;
43990;SDS011;29654;50.784;20.604;2023-02-18T21:20:25;13.18;;;8.48;;
43990;SDS011;29654;50.784;20.604;2023-02-18T21:25:28;5.63;;;4.55;;
43990;SDS011;29654;50.784;20.604;2023-02-18T21:30:32;11.18;;;7.07;;
43990;SDS011;29654;50.784;20.604;2023-02-18T21:35:38;4.93;;;4.00;;
43990;SDS011;29654;50.784;20.604;2023-02-18T21:40:41;4.30;;;3.50;;
43990;SDS011;29654;50.784;20.604;2023-02-18T21:45:45;4.97;;;3.50;;
43990;SDS011;29654;50.784;20.604;2023-02-18T21:50:48;4.38;;;2.85;;
43990;SDS011;29654;50.784;20.604;2023-02-18T21:55:51;6.50;;;4.40;;
43990;SDS011;29654;50.784;20.604;2023-02-18T22:00:56;5.85;;;4.22;;
43990;SDS011;29654;50.784;20.604;2023-02-18T22:06:00;4.50;;;3.72;;
43990;SDS011;29654;50.784;20.604;2023-02-18T22:11:03;5.53;;;4.38;;
43990;SDS011;29654;50.784;20.604;2023-02-18T22:16:06;6.43;;;4.53;;
43990;SDS011;29654;50.784;20.604;2023-02-18T22:21:10;5.70;;;4.55;;
43990;SDS011;29654;50.784;20.604;2023-02-18T22:26:13;5.95;;;4.95;;
43990;SDS011;29654;50.784;20.604;2023-02-18T22:31:15;6.15;;;5.40;;
43990;SDS011;29654;50.784;20.604;2023-02-18T22:36:20;8.30;;;4.43;;
43990;SDS011;29654;50.784;20.604;2023-02-18T22:41:24;6.20;;;5.28;;
43990;SDS011;29654;50.784;20.604;2023-02-18T22:46:29;4.63;;;4.22;;
43990;SDS011;29654;50.784;20.604;2023-02-18T22:51:35;4.90;;;4.40;;
43990;SDS011;29654;50.784;20.604;2023-02-18T22:56:39;8.93;;;4.90;;
43990;SDS011;29654;50.784;20.604;2023-02-18T23:01:43;9.77;;;5.20;;
43990;SDS011;29654;50.784;20.604;2023-02-18T23:06:50;5.85;;;3.83;;
43990;SDS011;29654;50.784;20.604;2023-02-18T23:11:53;5.72;;;3.83;;
43990;SDS011;29654;50.784;20.604;2023-02-18T23:16:58;4.68;;;3.25;;
43990;SDS011;29654;50.784;20.604;2023-02-18T23:22:18;5.10;;;3.70;;
43990;SDS011;29654;50.784;20.604;2023-02-18T23:27:29;10.80;;;6.70;;
43990;SDS011;29654;50.784;20.604;2023-02-18T23:32:32;8.27;;;6.15;;
43990;SDS011;29654;50.784;20.604;2023-02-18T23:37:36;15.90;;;10.27;;
43990;SDS011;29654;50.784;20.604;2023-02-18T23:42:55;12.23;;;7.55;;
43990;SDS011;29654;50.784;20.604;2023-02-18T23:47:58;16.42;;;11.20;;
43990;SDS011;29654;50.784;20.604;2023-02-18T23:53:02;21.55;;;13.30;;
43990;SDS011;29654;50.784;20.604;2023-02-18T23:58:04;14.52;;;10.60;;
